createdAt,value
2022-10-31T00:01:15.721Z,26.73
2022-10-31T00:03:42.372Z,26.50
2022-10-31T00:06:08.803Z,29.33
2022-10-31T00:08:35.482Z,27.05
2022-10-31T00:11:01.880Z,27.50
2022-10-31T00:13:28.316Z,28.97
2022-10-31T00:15:54.694Z,26.63
2022-10-31T00:18:21.083Z,29.33
2022-10-31T00:20:47.495Z,31.42
2022-10-31T00:23:13.885Z,28.08
2022-10-31T00:25:40.745Z,28.40
2022-10-31T00:28:09.887Z,28.55
2022-10-31T00:30:36.336Z,27.38
2022-10-31T00:33:04.738Z,26.70
2022-10-31T00:35:31.118Z,26.98
2022-10-31T00:37:57.508Z,27.20
2022-10-31T00:40:23.901Z,29.00
2022-10-31T00:42:50.318Z,34.47
2022-10-31T00:45:16.789Z,35.40
2022-10-31T00:47:43.282Z,34.67
2022-10-31T00:50:09.739Z,34.80
2022-10-31T00:52:36.255Z,37.22
2022-10-31T00:55:02.789Z,31.58
2022-10-31T00:57:29.133Z,32.42
2022-10-31T00:59:55.521Z,33.65
2022-10-31T01:02:22.172Z,33.97
2022-10-31T01:04:48.749Z,29.35
2022-10-31T01:07:15.164Z,32.35
2022-10-31T01:09:41.792Z,28.08
2022-10-31T01:12:08.277Z,25.58
2022-10-31T01:14:34.660Z,28.23
2022-10-31T01:17:01.160Z,30.67
2022-10-31T01:19:27.559Z,30.30
2022-10-31T01:21:55.807Z,32.42
2022-10-31T01:24:22.229Z,36.22
2022-10-31T01:26:48.588Z,34.10
2022-10-31T01:29:14.922Z,33.65
2022-10-31T01:31:41.305Z,34.05
2022-10-31T01:34:07.987Z,37.15
2022-10-31T01:36:38.936Z,33.05
2022-10-31T01:39:13.945Z,38.43
2022-10-31T01:41:44.097Z,37.35
2022-10-31T01:44:16.554Z,35.40
2022-10-31T01:46:51.302Z,41.13
2022-10-31T01:49:34.504Z,35.85
2022-10-31T01:52:17.734Z,41.63
2022-10-31T01:54:52.808Z,41.08
2022-10-31T01:57:21.362Z,39.55
2022-10-31T01:59:52.027Z,39.28
2022-10-31T02:02:19.762Z,35.25
2022-10-31T02:04:48.582Z,40.43
2022-10-31T02:07:19.684Z,38.72
2022-10-31T02:09:48.450Z,37.20
2022-10-31T02:12:16.266Z,34.60
2022-10-31T02:14:43.093Z,39.42
2022-10-31T02:17:09.645Z,35.30
2022-10-31T02:19:42.810Z,37.47
2022-10-31T02:22:27.075Z,39.20
2022-10-31T02:25:11.819Z,39.92
2022-10-31T02:27:43.956Z,43.58
2022-10-31T02:30:18.637Z,43.97
2022-10-31T02:33:03.819Z,42.63
2022-10-31T02:35:37.644Z,35.00
2022-10-31T02:38:21.611Z,37.00
2022-10-31T02:41:05.638Z,30.23
2022-10-31T02:43:55.591Z,31.33
2022-10-31T02:46:28.622Z,26.77
2022-10-31T02:49:00.442Z,36.10
2022-10-31T02:51:26.915Z,32.90
2022-10-31T02:53:53.276Z,42.75
2022-10-31T02:56:20.658Z,33.93
2022-10-31T02:58:59.875Z,34.97
2022-10-31T03:01:53.915Z,32.83
2022-10-31T03:04:44.682Z,30.25
2022-10-31T03:07:17.141Z,29.30
2022-10-31T03:09:51.548Z,32.50
2022-10-31T03:12:33.778Z,35.70
2022-10-31T03:15:11.619Z,44.58
2022-10-31T03:17:59.969Z,43.88
2022-10-31T03:20:48.827Z,42.83
2022-10-31T03:23:18.648Z,37.53
2022-10-31T03:25:47.683Z,54.03
2022-10-31T03:30:52.183Z,51.92
2022-10-31T03:33:25.449Z,39.10
2022-10-31T03:35:56.015Z,56.83
2022-10-31T03:38:23.472Z,53.80
2022-10-31T03:40:53.812Z,47.42
2022-10-31T03:43:26.479Z,37.45
2022-10-31T03:45:53.691Z,39.97
2022-10-31T03:48:21.373Z,47.33
2022-10-31T03:50:59.630Z,44.53
2022-10-31T03:53:33.133Z,50.83
2022-10-31T03:56:03.851Z,49.60
2022-10-31T03:58:36.215Z,37.55
2022-10-31T04:01:06.621Z,49.83
2022-10-31T04:03:36.536Z,46.40
2022-10-31T04:06:09.879Z,47.40
2022-10-31T04:08:43.298Z,41.47
2022-10-31T04:11:12.557Z,40.03
2022-10-31T04:13:41.180Z,37.83
2022-10-31T04:16:11.332Z,37.28
2022-10-31T04:18:40.716Z,51.30
2022-10-31T04:21:08.666Z,56.22
2022-10-31T04:23:36.651Z,52.67
2022-10-31T04:26:03.731Z,67.30
2022-10-31T04:28:30.305Z,57.65
2022-10-31T04:30:56.747Z,44.92
2022-10-31T04:33:23.166Z,38.75
2022-10-31T04:35:49.579Z,41.45
2022-10-31T04:38:16.064Z,54.17
2022-10-31T04:40:42.443Z,47.50
2022-10-31T04:43:08.997Z,58.08
2022-10-31T04:45:35.492Z,42.05
2022-10-31T04:48:02.451Z,36.88
2022-10-31T04:50:29.179Z,37.57
2022-10-31T04:52:55.587Z,37.92
2022-10-31T04:55:22.165Z,49.80
2022-10-31T04:57:50.355Z,48.10
2022-10-31T05:00:20.593Z,48.25
2022-10-31T05:02:52.071Z,55.20
2022-10-31T05:05:21.877Z,61.15
2022-10-31T05:07:49.568Z,58.63
2022-10-31T05:10:18.891Z,60.90
2022-10-31T05:12:49.972Z,48.42
2022-10-31T05:15:17.845Z,86.37
2022-10-31T05:17:45.021Z,55.63
2022-10-31T05:20:13.336Z,58.58
2022-10-31T05:22:46.604Z,67.88
2022-10-31T05:25:13.148Z,87.90
2022-10-31T05:27:44.967Z,161.30
2022-10-31T05:30:13.630Z,146.38
2022-10-31T05:32:41.231Z,103.30
2022-10-31T05:35:09.180Z,96.18
2022-10-31T05:37:39.435Z,125.97
2022-10-31T05:40:08.593Z,145.30
2022-10-31T05:42:35.864Z,99.07
2022-10-31T05:45:02.579Z,93.07
2022-10-31T05:47:29.038Z,116.60
2022-10-31T05:49:55.463Z,147.40
2022-10-31T05:52:21.961Z,128.30
2022-10-31T05:54:48.406Z,166.50
2022-10-31T05:57:14.848Z,73.57
2022-10-31T05:59:41.326Z,100.10
2022-10-31T06:02:07.762Z,116.30
2022-10-31T06:04:34.216Z,125.23
2022-10-31T06:07:00.616Z,65.10
2022-10-31T06:09:27.086Z,99.25
2022-10-31T06:11:53.525Z,70.60
2022-10-31T06:14:19.942Z,63.63
2022-10-31T06:16:46.396Z,59.83
2022-10-31T06:19:12.791Z,90.03
2022-10-31T06:21:39.225Z,58.58
2022-10-31T06:24:05.890Z,64.70
2022-10-31T06:26:32.286Z,88.10
2022-10-31T06:29:03.032Z,144.77
2022-10-31T06:31:30.559Z,122.15
2022-10-31T06:33:57.538Z,129.30
2022-10-31T06:36:24.014Z,97.50
2022-10-31T06:38:50.484Z,96.85
2022-10-31T06:41:16.928Z,119.10
2022-10-31T06:43:43.365Z,112.10
2022-10-31T06:46:09.803Z,128.13
2022-10-31T06:48:36.224Z,117.78
2022-10-31T06:51:03.054Z,102.20
2022-10-31T06:53:29.883Z,101.20
2022-10-31T06:55:57.561Z,108.90
2022-10-31T06:58:24.094Z,97.88
2022-10-31T07:00:50.637Z,95.43
2022-10-31T07:03:17.172Z,97.05
2022-10-31T07:05:44.104Z,81.53
2022-10-31T07:08:13.822Z,94.28
2022-10-31T07:10:41.802Z,85.28
2022-10-31T07:13:13.337Z,83.43
2022-10-31T07:15:41.423Z,81.85
2022-10-31T07:18:09.944Z,79.33
2022-10-31T07:20:36.829Z,81.15
2022-10-31T07:23:04.261Z,92.03
2022-10-31T07:25:31.103Z,96.30
2022-10-31T07:27:57.735Z,88.45
2022-10-31T07:30:24.472Z,74.57
2022-10-31T07:32:51.643Z,75.55
2022-10-31T07:35:21.159Z,73.78
2022-10-31T07:37:48.799Z,73.25
2022-10-31T07:40:15.666Z,67.80
2022-10-31T07:42:44.579Z,70.30
2022-10-31T07:45:13.925Z,66.40
2022-10-31T07:47:40.822Z,68.18
2022-10-31T07:50:08.859Z,69.53
2022-10-31T07:52:35.252Z,74.05
2022-10-31T07:55:01.893Z,62.47
2022-10-31T07:57:34.237Z,65.68
2022-10-31T08:00:01.314Z,65.80
2022-10-31T08:02:27.791Z,57.50
2022-10-31T08:04:57.178Z,58.42
2022-10-31T08:07:27.231Z,62.90
2022-10-31T08:09:53.691Z,62.42
2022-10-31T08:12:20.496Z,57.15
2022-10-31T08:14:47.072Z,46.35
2022-10-31T08:17:13.560Z,57.08
2022-10-31T08:19:39.947Z,53.37
2022-10-31T08:22:06.344Z,53.55
2022-10-31T08:24:32.788Z,65.55
2022-10-31T08:26:59.247Z,51.05
2022-10-31T08:29:25.617Z,54.45
2022-10-31T08:31:52.084Z,53.23
2022-10-31T08:34:18.488Z,59.33
2022-10-31T08:36:45.030Z,61.17
2022-10-31T08:39:11.489Z,55.85
2022-10-31T08:41:37.907Z,51.13
2022-10-31T08:44:04.396Z,51.17
2022-10-31T08:46:30.786Z,50.47
2022-10-31T08:48:57.177Z,56.45
2022-10-31T08:51:23.605Z,56.70
2022-10-31T08:53:49.981Z,56.05
2022-10-31T08:56:16.385Z,58.93
2022-10-31T08:58:42.815Z,60.78
2022-10-31T09:01:09.365Z,57.17
2022-10-31T09:03:36.029Z,58.25
2022-10-31T09:06:04.158Z,57.17
2022-10-31T09:08:31.864Z,53.07
2022-10-31T09:10:58.257Z,55.83
2022-10-31T09:13:27.979Z,58.17
2022-10-31T09:15:54.859Z,54.75
2022-10-31T09:18:23.371Z,50.65
2022-10-31T09:20:50.775Z,51.93
2022-10-31T09:23:19.928Z,43.45
2022-10-31T09:25:50.645Z,44.22
2022-10-31T09:28:20.284Z,43.90
2022-10-31T09:30:51.477Z,42.35
2022-10-31T09:33:18.415Z,47.30
2022-10-31T09:35:44.909Z,45.85
2022-10-31T09:38:19.761Z,48.28
2022-10-31T09:40:49.648Z,42.65
2022-10-31T09:43:36.253Z,42.33
2022-10-31T09:46:37.114Z,51.53
2022-10-31T09:49:32.245Z,48.75
2022-10-31T09:52:06.262Z,49.53
2022-10-31T09:54:53.752Z,46.95
2022-10-31T09:57:26.455Z,46.38
2022-10-31T09:59:52.966Z,48.20
2022-10-31T10:02:29.434Z,46.97
2022-10-31T10:05:05.500Z,49.08
2022-10-31T10:08:01.435Z,49.58
2022-10-31T10:10:41.726Z,61.80
2022-10-31T10:13:17.290Z,53.40
2022-10-31T10:16:02.540Z,51.17
2022-10-31T10:18:37.812Z,46.03
2022-10-31T10:21:22.858Z,45.83
2022-10-31T10:24:02.563Z,43.00
2022-10-31T10:26:42.955Z,47.77
2022-10-31T10:29:38.235Z,44.90
2022-10-31T10:32:13.708Z,40.90
2022-10-31T10:34:48.106Z,42.00
2022-10-31T10:37:17.492Z,49.40
2022-10-31T10:39:53.279Z,49.77
2022-10-31T10:42:20.461Z,47.08
2022-10-31T10:44:49.151Z,48.00
2022-10-31T10:47:15.559Z,51.47
2022-10-31T10:49:50.852Z,58.85
2022-10-31T10:52:47.561Z,53.57
2022-10-31T10:55:16.940Z,64.80
2022-10-31T10:58:01.284Z,60.20
2022-10-31T11:00:36.804Z,59.50
2022-10-31T11:03:04.319Z,64.18
2022-10-31T11:05:42.554Z,66.73
2022-10-31T11:08:09.536Z,73.00
2022-10-31T11:10:36.673Z,69.90
2022-10-31T11:13:03.519Z,65.07
2022-10-31T11:15:34.313Z,60.83
2022-10-31T11:18:00.726Z,67.77
2022-10-31T11:20:36.134Z,72.97
2022-10-31T11:23:18.618Z,69.00
2022-10-31T11:25:59.991Z,64.38
2022-10-31T11:28:31.606Z,71.28
2022-10-31T11:31:00.404Z,70.10
2022-10-31T11:33:35.087Z,70.30
2022-10-31T11:36:05.195Z,68.72
2022-10-31T11:38:40.945Z,62.85
2022-10-31T11:41:19.685Z,58.70
2022-10-31T11:43:58.602Z,64.70
2022-10-31T11:46:35.149Z,64.28
2022-10-31T11:49:02.499Z,61.72
2022-10-31T11:51:33.751Z,66.88
2022-10-31T11:54:03.205Z,58.78
2022-10-31T11:56:43.146Z,64.90
2022-10-31T11:59:35.825Z,63.22
2022-10-31T12:02:02.883Z,62.80
2022-10-31T12:04:39.628Z,63.15
2022-10-31T12:07:06.097Z,62.65
2022-10-31T12:09:36.649Z,66.33
2022-10-31T12:12:45.675Z,65.28
2022-10-31T12:15:33.822Z,64.00
2022-10-31T12:18:25.757Z,67.82
2022-10-31T12:21:16.904Z,67.35
2022-10-31T12:24:05.775Z,66.10
2022-10-31T12:26:53.604Z,66.05
2022-10-31T12:29:30.693Z,67.78
2022-10-31T12:32:25.784Z,71.13
2022-10-31T12:35:24.044Z,70.15
2022-10-31T12:37:59.655Z,73.30
2022-10-31T12:40:38.485Z,72.38
2022-10-31T12:43:17.232Z,72.43
2022-10-31T12:45:56.225Z,69.55
2022-10-31T12:48:41.040Z,68.95
2022-10-31T12:51:23.789Z,66.77
2022-10-31T12:54:12.390Z,72.63
2022-10-31T12:56:44.996Z,72.10
2022-10-31T12:59:43.691Z,63.30
2022-10-31T13:02:36.446Z,66.18
2022-10-31T13:05:27.650Z,64.47
2022-10-31T13:08:00.913Z,65.18
2022-10-31T13:10:35.463Z,66.95
2022-10-31T13:13:12.264Z,62.38
2022-10-31T13:15:48.985Z,64.65
2022-10-31T13:18:27.915Z,57.27
2022-10-31T13:20:56.517Z,60.20
2022-10-31T13:23:49.771Z,68.10
2022-10-31T13:26:33.422Z,63.50
2022-10-31T13:29:40.819Z,58.80
2022-10-31T13:32:08.511Z,60.63
2022-10-31T13:34:42.655Z,62.20
2022-10-31T13:37:38.053Z,62.60
2022-10-31T13:40:10.545Z,60.28
2022-10-31T13:42:59.303Z,61.78
2022-10-31T13:45:27.097Z,61.50
2022-10-31T13:48:01.975Z,58.92
2022-10-31T13:50:33.529Z,62.72
2022-10-31T13:53:15.051Z,63.33
2022-10-31T13:55:44.703Z,62.38
2022-10-31T13:58:22.093Z,60.97
2022-10-31T14:01:00.501Z,64.35
2022-10-31T14:03:57.481Z,61.80
2022-10-31T14:06:15.881Z,60.78
2022-10-31T14:08:50.198Z,61.90
2022-10-31T14:11:29.356Z,66.73
2022-10-31T14:14:01.534Z,62.97
2022-10-31T14:16:31.357Z,63.85
2022-10-31T14:19:09.212Z,65.63
2022-10-31T14:21:42.493Z,61.92
2022-10-31T14:24:31.607Z,63.20
2022-10-31T14:27:25.438Z,65.68
2022-10-31T14:29:51.881Z,61.53
2022-10-31T14:32:26.555Z,63.70
2022-10-31T14:34:58.449Z,63.33
2022-10-31T14:37:55.167Z,64.60
2022-10-31T14:40:31.783Z,54.20
2022-10-31T14:43:22.774Z,55.08
2022-10-31T14:45:55.253Z,53.25
2022-10-31T14:48:24.411Z,53.97
2022-10-31T14:50:54.161Z,51.73
2022-10-31T14:53:24.727Z,56.95
2022-10-31T14:55:53.937Z,49.20
2022-10-31T14:58:24.695Z,56.88
2022-10-31T15:00:56.577Z,55.10
2022-10-31T15:03:29.363Z,49.60
2022-10-31T15:06:00.164Z,50.63
2022-10-31T15:08:40.237Z,52.42
2022-10-31T15:11:38.151Z,52.20
2022-10-31T15:14:23.593Z,54.47
2022-10-31T15:16:50.600Z,53.13
2022-10-31T15:19:22.861Z,49.38
2022-10-31T15:21:52.021Z,49.85
2022-10-31T15:24:18.802Z,54.70
2022-10-31T15:26:48.139Z,50.88
2022-10-31T15:29:20.695Z,54.13
2022-10-31T15:32:22.080Z,54.97
2022-10-31T15:34:48.494Z,54.38
2022-10-31T15:37:17.673Z,50.35
2022-10-31T15:39:45.118Z,55.05
2022-10-31T15:42:34.818Z,52.50
2022-10-31T15:45:05.960Z,51.15
2022-10-31T15:47:34.328Z,50.38
2022-10-31T15:50:02.379Z,52.60
2022-10-31T15:52:41.174Z,46.92
2022-10-31T15:55:11.404Z,43.30
2022-10-31T15:57:44.516Z,49.05
2022-10-31T16:00:23.357Z,45.03
2022-10-31T16:02:49.853Z,46.13
2022-10-31T16:05:19.179Z,47.10
2022-10-31T16:07:53.230Z,46.73
2022-10-31T16:10:25.597Z,42.25
2022-10-31T16:12:53.008Z,40.85
2022-10-31T16:15:21.963Z,42.33
2022-10-31T16:17:51.358Z,40.28
2022-10-31T16:20:22.493Z,42.20
2022-10-31T16:22:51.104Z,38.38
2022-10-31T16:25:26.417Z,42.05
2022-10-31T16:27:54.845Z,43.17
2022-10-31T16:30:31.980Z,48.67
2022-10-31T16:33:00.911Z,45.23
2022-10-31T16:35:33.748Z,43.53
2022-10-31T16:38:00.195Z,39.35
2022-10-31T16:40:26.783Z,39.05
2022-10-31T16:42:53.737Z,41.17
2022-10-31T16:45:25.394Z,40.70
2022-10-31T16:47:52.602Z,38.28
2022-10-31T16:50:24.333Z,42.88
2022-10-31T16:53:12.830Z,36.03
2022-10-31T16:56:13.091Z,40.97
2022-10-31T16:58:39.510Z,36.20
2022-10-31T17:01:07.742Z,45.25
2022-10-31T17:03:34.267Z,40.25
2022-10-31T17:06:00.714Z,42.05
2022-10-31T17:08:27.121Z,39.00
2022-10-31T17:10:56.505Z,35.20
2022-10-31T17:13:26.113Z,38.70
2022-10-31T17:15:55.293Z,40.42
2022-10-31T17:18:27.093Z,36.40
2022-10-31T17:21:03.099Z,37.53
2022-10-31T17:23:30.170Z,41.07
2022-10-31T17:25:57.086Z,42.88
2022-10-31T17:28:23.624Z,42.78
2022-10-31T17:30:50.155Z,44.30
2022-10-31T17:33:17.173Z,39.95
2022-10-31T17:35:44.384Z,38.97
2022-10-31T17:38:11.564Z,42.55
2022-10-31T17:40:39.715Z,36.63
2022-10-31T17:43:06.236Z,40.17
2022-10-31T17:45:33.092Z,37.95
2022-10-31T17:47:59.545Z,37.30
2022-10-31T17:50:27.163Z,36.28
2022-10-31T17:52:53.729Z,37.88
2022-10-31T17:55:22.909Z,35.45
2022-10-31T17:57:49.350Z,36.10
2022-10-31T18:00:18.515Z,37.33
2022-10-31T18:02:45.179Z,38.30
2022-10-31T18:05:11.810Z,33.55
2022-10-31T18:07:38.221Z,35.72
2022-10-31T18:10:05.585Z,38.47
2022-10-31T18:12:32.208Z,44.30
2022-10-31T18:14:58.877Z,40.78
2022-10-31T18:17:25.464Z,38.70
2022-10-31T18:19:51.961Z,35.00
2022-10-31T18:22:18.389Z,35.17
2022-10-31T18:24:44.836Z,34.90
2022-10-31T18:27:11.248Z,37.22
2022-10-31T18:29:37.685Z,37.78
2022-10-31T18:32:09.177Z,32.75
2022-10-31T18:34:36.551Z,35.92
2022-10-31T18:37:03.353Z,32.70
2022-10-31T18:39:29.816Z,32.45
2022-10-31T18:41:56.343Z,31.60
2022-10-31T18:44:22.753Z,29.05
2022-10-31T18:46:49.506Z,33.95
2022-10-31T18:49:16.064Z,32.20
2022-10-31T18:51:42.454Z,28.27
2022-10-31T18:54:08.858Z,28.17
2022-10-31T18:56:35.227Z,28.98
2022-10-31T18:59:01.946Z,33.88
2022-10-31T19:01:29.021Z,34.77
2022-10-31T19:03:57.151Z,30.33
2022-10-31T19:06:24.934Z,26.70
2022-10-31T19:08:57.038Z,28.90
2022-10-31T19:11:23.507Z,24.92
2022-10-31T19:13:49.875Z,27.63
2022-10-31T19:16:16.886Z,29.58
2022-10-31T19:18:44.566Z,26.67
2022-10-31T19:21:13.553Z,27.23
2022-10-31T19:23:40.314Z,25.33
2022-10-31T19:26:07.192Z,25.97
2022-10-31T19:28:34.940Z,25.35
2022-10-31T19:31:01.416Z,23.60
2022-10-31T19:33:33.292Z,25.23
2022-10-31T19:36:08.444Z,23.02
2022-10-31T19:38:36.482Z,22.83
2022-10-31T19:41:09.648Z,21.00
2022-10-31T19:43:36.329Z,21.48
2022-10-31T19:46:03.965Z,20.98
2022-10-31T19:48:30.750Z,22.65
2022-10-31T19:51:02.007Z,21.90
2022-10-31T19:53:30.336Z,20.15
2022-10-31T19:55:58.021Z,21.88
2022-10-31T19:58:25.281Z,18.45
2022-10-31T20:00:51.995Z,19.85
2022-10-31T20:03:21.614Z,19.83
2022-10-31T20:05:50.165Z,19.40
2022-10-31T20:08:20.872Z,17.98
2022-10-31T20:10:59.275Z,18.05
2022-10-31T20:13:26.249Z,22.60
2022-10-31T20:15:52.886Z,19.23
2022-10-31T20:18:19.352Z,16.30
2022-10-31T20:20:46.118Z,16.73
2022-10-31T20:23:12.535Z,17.25
2022-10-31T20:25:47.458Z,20.90
2022-10-31T20:28:14.012Z,17.13
2022-10-31T20:30:40.521Z,18.95
2022-10-31T20:33:07.268Z,17.70
2022-10-31T20:35:41.134Z,16.88
2022-10-31T20:38:08.861Z,19.25
2022-10-31T20:40:36.218Z,21.03
2022-10-31T20:43:04.204Z,17.85
2022-10-31T20:45:31.951Z,18.50
2022-10-31T20:47:59.372Z,18.13
2022-10-31T20:50:26.184Z,17.38
2022-10-31T20:52:53.135Z,16.83
2022-10-31T20:55:19.791Z,20.27
2022-10-31T20:57:46.367Z,17.52
2022-10-31T21:00:13.364Z,17.08
2022-10-31T21:02:40.660Z,15.93
2022-10-31T21:05:12.563Z,17.20
2022-10-31T21:07:39.768Z,18.70
2022-10-31T21:10:06.988Z,17.65
2022-10-31T21:12:33.383Z,17.77
2022-10-31T21:14:59.788Z,15.93
2022-10-31T21:17:28.007Z,15.00
2022-10-31T21:19:54.398Z,16.88
2022-10-31T21:22:20.840Z,15.55
2022-10-31T21:24:47.271Z,17.67
2022-10-31T21:27:13.652Z,16.10
2022-10-31T21:29:40.046Z,15.97
2022-10-31T21:32:06.438Z,15.07
2022-10-31T21:34:32.825Z,19.17
2022-10-31T21:36:59.202Z,14.93
2022-10-31T21:39:25.590Z,18.20
2022-10-31T21:41:51.934Z,18.13
2022-10-31T21:44:18.403Z,21.30
2022-10-31T21:46:44.822Z,16.85
2022-10-31T21:49:11.297Z,17.15
2022-10-31T21:51:37.686Z,21.23
2022-10-31T21:54:04.662Z,18.17
2022-10-31T21:56:31.769Z,15.82
2022-10-31T21:58:58.600Z,19.13
2022-10-31T22:01:27.250Z,17.20
2022-10-31T22:03:53.990Z,15.68
2022-10-31T22:06:20.725Z,17.60
2022-10-31T22:08:47.495Z,23.27
2022-10-31T22:11:16.507Z,21.83
2022-10-31T22:13:44.816Z,17.45
2022-10-31T22:16:13.561Z,17.65
2022-10-31T22:18:41.193Z,19.33
2022-10-31T22:21:10.601Z,17.27
2022-10-31T22:23:37.473Z,18.42
2022-10-31T22:26:05.681Z,16.77
2022-10-31T22:28:33.789Z,16.65
2022-10-31T22:31:06.602Z,15.23
2022-10-31T22:33:33.537Z,19.30
2022-10-31T22:36:01.037Z,17.63
2022-10-31T22:38:27.417Z,18.40
2022-10-31T22:40:57.096Z,18.77
2022-10-31T22:43:23.534Z,15.90
2022-10-31T22:45:57.277Z,16.52
2022-10-31T22:48:23.733Z,16.52
2022-10-31T22:50:50.106Z,16.13
2022-10-31T22:53:16.474Z,18.23
2022-10-31T22:55:42.991Z,18.17
2022-10-31T22:58:09.425Z,22.30
2022-10-31T23:00:36.033Z,19.00
2022-10-31T23:03:02.471Z,19.45
2022-10-31T23:05:28.990Z,15.88
2022-10-31T23:07:55.486Z,20.40
2022-10-31T23:10:21.968Z,16.13
2022-10-31T23:12:48.376Z,18.70
2022-10-31T23:15:14.856Z,17.50
2022-10-31T23:17:41.253Z,16.10
2022-10-31T23:20:08.215Z,17.63
2022-10-31T23:22:34.586Z,19.77
2022-10-31T23:25:00.987Z,17.60
2022-10-31T23:27:27.424Z,18.17
2022-10-31T23:29:56.357Z,17.27
2022-10-31T23:32:24.580Z,16.33
2022-10-31T23:34:53.501Z,16.67
2022-10-31T23:37:21.853Z,15.95
2022-10-31T23:39:48.695Z,18.00
2022-10-31T23:42:15.962Z,18.38
2022-10-31T23:44:42.747Z,19.73
2022-10-31T23:47:09.151Z,19.38
2022-10-31T23:49:35.733Z,15.10
2022-10-31T23:52:02.899Z,19.33
2022-10-31T23:54:29.552Z,18.17
2022-10-31T23:56:56.602Z,17.60
2022-10-31T23:59:23.038Z,20.42
